sensor_id;sensor_type;location;lat;lon;timestamp;P1;durP1;ratioP1;P2;durP2;ratioP2
13048;SDS011;6591;51.446;5.404;2023-04-22T00:01:42;7.77;;;6.97;;
13048;SDS011;6591;51.446;5.404;2023-04-22T00:08:41;6.60;;;5.93;;
13048;SDS011;6591;51.446;5.404;2023-04-22T00:11:08;7.50;;;6.23;;
13048;SDS011;6591;51.446;5.404;2023-04-22T00:13:36;6.50;;;5.90;;
13048;SDS011;6591;51.446;5.404;2023-04-22T00:16:03;7.50;;;6.77;;
13048;SDS011;6591;51.446;5.404;2023-04-22T00:18:35;7.07;;;6.30;;
13048;SDS011;6591;51.446;5.404;2023-04-22T00:21:02;7.70;;;6.80;;
13048;SDS011;6591;51.446;5.404;2023-04-22T00:23:31;7.10;;;6.40;;
13048;SDS011;6591;51.446;5.404;2023-04-22T00:25:58;7.43;;;6.63;;
13048;SDS011;6591;51.446;5.404;2023-04-22T00:28:26;8.17;;;7.27;;
13048;SDS011;6591;51.446;5.404;2023-04-22T00:30:53;8.40;;;7.30;;
13048;SDS011;6591;51.446;5.404;2023-04-22T00:33:21;8.70;;;7.50;;
13048;SDS011;6591;51.446;5.404;2023-04-22T00:35:49;7.77;;;6.97;;
13048;SDS011;6591;51.446;5.404;2023-04-22T00:38:15;8.50;;;7.43;;
13048;SDS011;6591;51.446;5.404;2023-04-22T00:40:42;8.00;;;7.30;;
13048;SDS011;6591;51.446;5.404;2023-04-22T00:43:11;7.90;;;7.10;;
13048;SDS011;6591;51.446;5.404;2023-04-22T00:45:39;8.50;;;7.60;;
13048;SDS011;6591;51.446;5.404;2023-04-22T00:48:08;7.43;;;6.73;;
13048;SDS011;6591;51.446;5.404;2023-04-22T00:50:37;8.73;;;6.63;;
13048;SDS011;6591;51.446;5.404;2023-04-22T00:53:04;7.77;;;6.93;;
13048;SDS011;6591;51.446;5.404;2023-04-22T00:55:31;7.60;;;6.80;;
13048;SDS011;6591;51.446;5.404;2023-04-22T00:57:59;7.57;;;6.73;;
13048;SDS011;6591;51.446;5.404;2023-04-22T01:00:28;8.77;;;6.90;;
13048;SDS011;6591;51.446;5.404;2023-04-22T01:02:55;9.93;;;8.07;;
13048;SDS011;6591;51.446;5.404;2023-04-22T01:05:23;8.67;;;7.70;;
13048;SDS011;6591;51.446;5.404;2023-04-22T01:07:51;8.93;;;7.97;;
13048;SDS011;6591;51.446;5.404;2023-04-22T01:10:18;9.17;;;7.50;;
13048;SDS011;6591;51.446;5.404;2023-04-22T01:12:45;11.33;;;7.97;;
13048;SDS011;6591;51.446;5.404;2023-04-22T01:15:12;11.10;;;8.70;;
13048;SDS011;6591;51.446;5.404;2023-04-22T01:17:39;8.70;;;7.67;;
13048;SDS011;6591;51.446;5.404;2023-04-22T01:20:07;8.97;;;7.77;;
13048;SDS011;6591;51.446;5.404;2023-04-22T01:22:41;12.53;;;8.37;;
13048;SDS011;6591;51.446;5.404;2023-04-22T01:25:10;8.57;;;7.67;;
13048;SDS011;6591;51.446;5.404;2023-04-22T01:27:38;10.53;;;7.83;;
13048;SDS011;6591;51.446;5.404;2023-04-22T01:30:07;9.00;;;8.00;;
13048;SDS011;6591;51.446;5.404;2023-04-22T01:32:38;8.57;;;7.63;;
13048;SDS011;6591;51.446;5.404;2023-04-22T01:35:06;8.30;;;7.37;;
13048;SDS011;6591;51.446;5.404;2023-04-22T01:37:35;8.57;;;7.47;;
13048;SDS011;6591;51.446;5.404;2023-04-22T01:40:03;7.33;;;6.37;;
13048;SDS011;6591;51.446;5.404;2023-04-22T01:42:31;7.47;;;6.67;;
13048;SDS011;6591;51.446;5.404;2023-04-22T01:44:58;7.27;;;6.57;;
13048;SDS011;6591;51.446;5.404;2023-04-22T01:47:25;7.67;;;6.87;;
13048;SDS011;6591;51.446;5.404;2023-04-22T01:49:52;6.90;;;6.20;;
13048;SDS011;6591;51.446;5.404;2023-04-22T01:52:19;7.33;;;5.83;;
13048;SDS011;6591;51.446;5.404;2023-04-22T01:54:47;7.53;;;6.50;;
13048;SDS011;6591;51.446;5.404;2023-04-22T01:57:14;6.23;;;5.63;;
13048;SDS011;6591;51.446;5.404;2023-04-22T01:59:42;6.37;;;5.77;;
13048;SDS011;6591;51.446;5.404;2023-04-22T02:02:09;6.90;;;6.20;;
13048;SDS011;6591;51.446;5.404;2023-04-22T02:04:36;6.40;;;5.77;;
13048;SDS011;6591;51.446;5.404;2023-04-22T02:07:04;7.30;;;6.20;;
13048;SDS011;6591;51.446;5.404;2023-04-22T02:09:34;6.83;;;6.13;;
13048;SDS011;6591;51.446;5.404;2023-04-22T02:12:01;6.43;;;5.83;;
13048;SDS011;6591;51.446;5.404;2023-04-22T02:14:28;7.37;;;6.60;;
13048;SDS011;6591;51.446;5.404;2023-04-22T02:17:01;7.40;;;6.70;;
13048;SDS011;6591;51.446;5.404;2023-04-22T02:19:28;7.47;;;6.77;;
13048;SDS011;6591;51.446;5.404;2023-04-22T02:21:56;7.43;;;6.67;;
13048;SDS011;6591;51.446;5.404;2023-04-22T02:24:23;7.63;;;6.83;;
13048;SDS011;6591;51.446;5.404;2023-04-22T02:26:50;7.47;;;6.70;;
13048;SDS011;6591;51.446;5.404;2023-04-22T02:29:18;7.43;;;6.60;;
13048;SDS011;6591;51.446;5.404;2023-04-22T02:31:45;8.43;;;7.50;;
13048;SDS011;6591;51.446;5.404;2023-04-22T02:34:13;7.60;;;6.87;;
13048;SDS011;6591;51.446;5.404;2023-04-22T02:36:40;8.00;;;7.20;;
13048;SDS011;6591;51.446;5.404;2023-04-22T02:39:07;8.27;;;7.47;;
13048;SDS011;6591;51.446;5.404;2023-04-22T02:41:34;8.43;;;7.60;;
13048;SDS011;6591;51.446;5.404;2023-04-22T02:44:01;8.73;;;7.00;;
13048;SDS011;6591;51.446;5.404;2023-04-22T02:46:29;7.87;;;7.10;;
13048;SDS011;6591;51.446;5.404;2023-04-22T02:48:56;9.17;;;7.43;;
13048;SDS011;6591;51.446;5.404;2023-04-22T02:51:23;8.03;;;7.17;;
13048;SDS011;6591;51.446;5.404;2023-04-22T02:53:50;8.00;;;7.17;;
13048;SDS011;6591;51.446;5.404;2023-04-22T02:56:18;7.90;;;7.10;;
13048;SDS011;6591;51.446;5.404;2023-04-22T02:58:46;7.93;;;7.13;;
13048;SDS011;6591;51.446;5.404;2023-04-22T03:01:13;7.67;;;6.87;;
13048;SDS011;6591;51.446;5.404;2023-04-22T03:03:42;8.40;;;7.50;;
13048;SDS011;6591;51.446;5.404;2023-04-22T03:06:14;7.80;;;7.10;;
13048;SDS011;6591;51.446;5.404;2023-04-22T03:08:41;8.07;;;7.23;;
13048;SDS011;6591;51.446;5.404;2023-04-22T03:11:09;8.33;;;7.53;;
13048;SDS011;6591;51.446;5.404;2023-04-22T03:13:36;8.07;;;7.27;;
13048;SDS011;6591;51.446;5.404;2023-04-22T03:16:02;8.83;;;7.93;;
13048;SDS011;6591;51.446;5.404;2023-04-22T03:18:31;8.30;;;7.40;;
13048;SDS011;6591;51.446;5.404;2023-04-22T03:20:58;10.80;;;7.70;;
13048;SDS011;6591;51.446;5.404;2023-04-22T03:23:26;7.87;;;7.17;;
13048;SDS011;6591;51.446;5.404;2023-04-22T03:25:53;7.80;;;7.00;;
13048;SDS011;6591;51.446;5.404;2023-04-22T03:28:21;8.17;;;7.37;;
13048;SDS011;6591;51.446;5.404;2023-04-22T03:30:49;7.63;;;6.93;;
13048;SDS011;6591;51.446;5.404;2023-04-22T03:33:16;8.67;;;7.53;;
13048;SDS011;6591;51.446;5.404;2023-04-22T03:35:58;8.70;;;6.60;;
13048;SDS011;6591;51.446;5.404;2023-04-22T03:38:25;7.00;;;6.30;;
13048;SDS011;6591;51.446;5.404;2023-04-22T03:40:54;9.17;;;7.43;;
13048;SDS011;6591;51.446;5.404;2023-04-22T03:43:37;7.40;;;6.70;;
13048;SDS011;6591;51.446;5.404;2023-04-22T03:46:06;7.90;;;7.20;;
13048;SDS011;6591;51.446;5.404;2023-04-22T03:48:38;8.13;;;7.33;;
13048;SDS011;6591;51.446;5.404;2023-04-22T03:51:11;8.53;;;7.53;;
13048;SDS011;6591;51.446;5.404;2023-04-22T03:53:39;7.20;;;6.57;;
13048;SDS011;6591;51.446;5.404;2023-04-22T03:56:09;7.87;;;7.17;;
13048;SDS011;6591;51.446;5.404;2023-04-22T03:58:41;7.10;;;6.40;;
13048;SDS011;6591;51.446;5.404;2023-04-22T04:01:08;7.90;;;7.10;;
13048;SDS011;6591;51.446;5.404;2023-04-22T04:03:37;7.53;;;6.83;;
13048;SDS011;6591;51.446;5.404;2023-04-22T04:06:07;7.37;;;6.67;;
13048;SDS011;6591;51.446;5.404;2023-04-22T04:08:35;7.67;;;6.87;;
13048;SDS011;6591;51.446;5.404;2023-04-22T04:11:03;8.10;;;7.37;;
13048;SDS011;6591;51.446;5.404;2023-04-22T04:13:30;7.90;;;7.13;;
13048;SDS011;6591;51.446;5.404;2023-04-22T04:16:29;8.40;;;7.60;;
13048;SDS011;6591;51.446;5.404;2023-04-22T04:19:06;9.17;;;8.27;;
13048;SDS011;6591;51.446;5.404;2023-04-22T04:21:35;9.03;;;8.13;;
13048;SDS011;6591;51.446;5.404;2023-04-22T04:24:04;8.97;;;8.07;;
13048;SDS011;6591;51.446;5.404;2023-04-22T04:26:37;8.23;;;7.43;;
13048;SDS011;6591;51.446;5.404;2023-04-22T04:29:10;8.37;;;7.57;;
13048;SDS011;6591;51.446;5.404;2023-04-22T04:31:45;8.87;;;8.07;;
13048;SDS011;6591;51.446;5.404;2023-04-22T04:34:13;9.00;;;8.10;;
13048;SDS011;6591;51.446;5.404;2023-04-22T04:36:40;8.70;;;7.90;;
13048;SDS011;6591;51.446;5.404;2023-04-22T04:39:15;8.40;;;7.60;;
13048;SDS011;6591;51.446;5.404;2023-04-22T04:41:43;8.73;;;7.93;;
13048;SDS011;6591;51.446;5.404;2023-04-22T04:44:10;8.97;;;8.13;;
13048;SDS011;6591;51.446;5.404;2023-04-22T04:46:38;8.90;;;8.00;;
13048;SDS011;6591;51.446;5.404;2023-04-22T04:49:06;9.27;;;8.17;;
13048;SDS011;6591;51.446;5.404;2023-04-22T04:51:54;7.57;;;6.87;;
13048;SDS011;6591;51.446;5.404;2023-04-22T04:54:21;8.93;;;7.30;;
13048;SDS011;6591;51.446;5.404;2023-04-22T04:56:48;8.60;;;7.80;;
13048;SDS011;6591;51.446;5.404;2023-04-22T04:59:15;8.27;;;7.37;;
13048;SDS011;6591;51.446;5.404;2023-04-22T05:01:43;8.27;;;7.47;;
13048;SDS011;6591;51.446;5.404;2023-04-22T05:04:11;8.03;;;7.23;;
13048;SDS011;6591;51.446;5.404;2023-04-22T05:06:41;8.20;;;7.40;;
13048;SDS011;6591;51.446;5.404;2023-04-22T05:09:08;9.83;;;8.83;;
13048;SDS011;6591;51.446;5.404;2023-04-22T05:11:36;9.50;;;8.60;;
13048;SDS011;6591;51.446;5.404;2023-04-22T05:14:10;10.10;;;9.07;;
13048;SDS011;6591;51.446;5.404;2023-04-22T05:16:39;10.27;;;9.17;;
13048;SDS011;6591;51.446;5.404;2023-04-22T05:19:08;9.93;;;8.93;;
13048;SDS011;6591;51.446;5.404;2023-04-22T05:21:35;9.30;;;8.40;;
13048;SDS011;6591;51.446;5.404;2023-04-22T05:24:02;9.03;;;8.23;;
13048;SDS011;6591;51.446;5.404;2023-04-22T05:26:30;10.13;;;9.13;;
13048;SDS011;6591;51.446;5.404;2023-04-22T05:28:59;9.70;;;8.77;;
13048;SDS011;6591;51.446;5.404;2023-04-22T05:31:26;9.50;;;8.60;;
13048;SDS011;6591;51.446;5.404;2023-04-22T05:33:55;9.47;;;8.57;;
13048;SDS011;6591;51.446;5.404;2023-04-22T05:36:22;9.90;;;8.93;;
13048;SDS011;6591;51.446;5.404;2023-04-22T05:38:50;8.63;;;7.77;;
13048;SDS011;6591;51.446;5.404;2023-04-22T05:41:17;10.73;;;8.90;;
13048;SDS011;6591;51.446;5.404;2023-04-22T05:43:44;9.63;;;8.70;;
13048;SDS011;6591;51.446;5.404;2023-04-22T05:46:16;9.17;;;8.37;;
13048;SDS011;6591;51.446;5.404;2023-04-22T05:48:44;9.90;;;8.47;;
13048;SDS011;6591;51.446;5.404;2023-04-22T05:51:37;9.17;;;8.27;;
13048;SDS011;6591;51.446;5.404;2023-04-22T05:54:05;9.73;;;8.73;;
13048;SDS011;6591;51.446;5.404;2023-04-22T05:56:32;9.70;;;8.70;;
13048;SDS011;6591;51.446;5.404;2023-04-22T05:59:00;9.07;;;8.17;;
13048;SDS011;6591;51.446;5.404;2023-04-22T06:01:27;9.40;;;8.40;;
13048;SDS011;6591;51.446;5.404;2023-04-22T06:04:00;9.57;;;8.57;;
13048;SDS011;6591;51.446;5.404;2023-04-22T06:06:29;8.50;;;7.70;;
13048;SDS011;6591;51.446;5.404;2023-04-22T06:08:57;9.80;;;8.83;;
13048;SDS011;6591;51.446;5.404;2023-04-22T06:11:24;8.63;;;7.83;;
13048;SDS011;6591;51.446;5.404;2023-04-22T06:13:51;8.80;;;7.90;;
13048;SDS011;6591;51.446;5.404;2023-04-22T06:16:18;9.10;;;8.20;;
13048;SDS011;6591;51.446;5.404;2023-04-22T06:18:45;9.83;;;8.43;;
13048;SDS011;6591;51.446;5.404;2023-04-22T06:21:13;9.13;;;8.17;;
13048;SDS011;6591;51.446;5.404;2023-04-22T06:23:41;10.90;;;8.20;;
13048;SDS011;6591;51.446;5.404;2023-04-22T06:26:08;23.30;;;9.33;;
13048;SDS011;6591;51.446;5.404;2023-04-22T06:28:36;9.83;;;8.83;;
13048;SDS011;6591;51.446;5.404;2023-04-22T06:31:09;30.27;;;9.83;;
13048;SDS011;6591;51.446;5.404;2023-04-22T06:33:36;10.80;;;8.30;;
13048;SDS011;6591;51.446;5.404;2023-04-22T06:36:04;21.03;;;9.37;;
13048;SDS011;6591;51.446;5.404;2023-04-22T06:38:33;9.60;;;8.47;;
13048;SDS011;6591;51.446;5.404;2023-04-22T06:41:30;13.40;;;9.27;;
13048;SDS011;6591;51.446;5.404;2023-04-22T06:44:15;8.73;;;7.83;;
13048;SDS011;6591;51.446;5.404;2023-04-22T06:47:08;9.00;;;8.00;;
13048;SDS011;6591;51.446;5.404;2023-04-22T06:49:49;7.67;;;6.90;;
13048;SDS011;6591;51.446;5.404;2023-04-22T06:52:23;8.77;;;7.43;;
13048;SDS011;6591;51.446;5.404;2023-04-22T06:54:53;9.80;;;8.47;;
13048;SDS011;6591;51.446;5.404;2023-04-22T06:57:20;9.00;;;7.73;;
13048;SDS011;6591;51.446;5.404;2023-04-22T06:59:47;9.60;;;7.73;;
13048;SDS011;6591;51.446;5.404;2023-04-22T07:02:15;8.33;;;7.53;;
13048;SDS011;6591;51.446;5.404;2023-04-22T07:04:42;8.13;;;7.17;;
13048;SDS011;6591;51.446;5.404;2023-04-22T07:07:10;8.27;;;7.23;;
13048;SDS011;6591;51.446;5.404;2023-04-22T07:09:37;7.87;;;6.83;;
13048;SDS011;6591;51.446;5.404;2023-04-22T07:12:05;8.13;;;7.33;;
13048;SDS011;6591;51.446;5.404;2023-04-22T07:14:32;7.40;;;6.50;;
13048;SDS011;6591;51.446;5.404;2023-04-22T07:16:59;7.03;;;6.33;;
13048;SDS011;6591;51.446;5.404;2023-04-22T07:19:26;8.10;;;6.18;;
13048;SDS011;6591;51.446;5.404;2023-04-22T07:21:53;7.30;;;6.60;;
13048;SDS011;6591;51.446;5.404;2023-04-22T07:24:20;6.25;;;5.65;;
13048;SDS011;6591;51.446;5.404;2023-04-22T07:26:47;6.38;;;5.78;;
13048;SDS011;6591;51.446;5.404;2023-04-22T07:29:14;7.75;;;5.50;;
13048;SDS011;6591;51.446;5.404;2023-04-22T07:31:41;5.70;;;5.20;;
13048;SDS011;6591;51.446;5.404;2023-04-22T07:34:08;5.95;;;5.35;;
13048;SDS011;6591;51.446;5.404;2023-04-22T07:36:36;7.15;;;5.70;;
13048;SDS011;6591;51.446;5.404;2023-04-22T07:39:03;6.00;;;5.35;;
13048;SDS011;6591;51.446;5.404;2023-04-22T07:41:31;6.75;;;6.15;;
13048;SDS011;6591;51.446;5.404;2023-04-22T07:43:58;6.20;;;5.60;;
13048;SDS011;6591;51.446;5.404;2023-04-22T07:46:25;6.40;;;5.80;;
13048;SDS011;6591;51.446;5.404;2023-04-22T07:48:52;7.68;;;6.07;;
13048;SDS011;6591;51.446;5.404;2023-04-22T07:51:19;5.95;;;5.45;;
13048;SDS011;6591;51.446;5.404;2023-04-22T07:53:46;5.50;;;5.00;;
13048;SDS011;6591;51.446;5.404;2023-04-22T07:56:13;5.95;;;5.35;;
13048;SDS011;6591;51.446;5.404;2023-04-22T07:58:40;6.28;;;5.65;;
13048;SDS011;6591;51.446;5.404;2023-04-22T08:01:07;5.78;;;5.28;;
13048;SDS011;6591;51.446;5.404;2023-04-22T08:03:34;6.10;;;5.50;;
13048;SDS011;6591;51.446;5.404;2023-04-22T08:06:02;6.40;;;5.80;;
13048;SDS011;6591;51.446;5.404;2023-04-22T08:08:29;5.70;;;5.10;;
13048;SDS011;6591;51.446;5.404;2023-04-22T08:10:56;6.15;;;5.55;;
13048;SDS011;6591;51.446;5.404;2023-04-22T08:13:23;6.03;;;5.47;;
13048;SDS011;6591;51.446;5.404;2023-04-22T08:15:50;5.93;;;4.72;;
13048;SDS011;6591;51.446;5.404;2023-04-22T08:18:17;6.97;;;6.38;;
13048;SDS011;6591;51.446;5.404;2023-04-22T08:20:45;9.75;;;8.75;;
13048;SDS011;6591;51.446;5.404;2023-04-22T08:23:13;7.90;;;6.55;;
13048;SDS011;6591;51.446;5.404;2023-04-22T08:25:39;7.35;;;6.63;;
13048;SDS011;6591;51.446;5.404;2023-04-22T08:28:07;6.60;;;5.97;;
13048;SDS011;6591;51.446;5.404;2023-04-22T08:30:34;5.95;;;5.35;;
13048;SDS011;6591;51.446;5.404;2023-04-22T08:33:01;6.60;;;5.85;;
13048;SDS011;6591;51.446;5.404;2023-04-22T08:35:28;5.07;;;4.57;;
13048;SDS011;6591;51.446;5.404;2023-04-22T08:37:56;4.85;;;4.45;;
13048;SDS011;6591;51.446;5.404;2023-04-22T08:40:23;5.53;;;4.85;;
13048;SDS011;6591;51.446;5.404;2023-04-22T08:42:50;4.78;;;4.30;;
13048;SDS011;6591;51.446;5.404;2023-04-22T08:45:18;5.00;;;4.60;;
13048;SDS011;6591;51.446;5.404;2023-04-22T08:47:47;4.78;;;4.30;;
13048;SDS011;6591;51.446;5.404;2023-04-22T08:50:15;4.80;;;4.32;;
13048;SDS011;6591;51.446;5.404;2023-04-22T08:52:42;6.32;;;5.30;;
13048;SDS011;6591;51.446;5.404;2023-04-22T08:55:09;4.82;;;4.28;;
13048;SDS011;6591;51.446;5.404;2023-04-22T08:57:37;4.75;;;4.35;;
13048;SDS011;6591;51.446;5.404;2023-04-22T09:00:06;4.72;;;4.18;;
13048;SDS011;6591;51.446;5.404;2023-04-22T09:02:35;4.60;;;4.15;;
13048;SDS011;6591;51.446;5.404;2023-04-22T09:05:07;5.90;;;4.38;;
13048;SDS011;6591;51.446;5.404;2023-04-22T09:07:36;4.53;;;4.13;;
13048;SDS011;6591;51.446;5.404;2023-04-22T09:10:05;4.72;;;4.22;;
13048;SDS011;6591;51.446;5.404;2023-04-22T09:12:33;4.88;;;4.38;;
13048;SDS011;6591;51.446;5.404;2023-04-22T09:15:00;5.03;;;4.53;;
13048;SDS011;6591;51.446;5.404;2023-04-22T09:17:29;4.53;;;4.13;;
13048;SDS011;6591;51.446;5.404;2023-04-22T09:20:00;4.25;;;3.85;;
13048;SDS011;6591;51.446;5.404;2023-04-22T09:22:44;6.00;;;4.28;;
13048;SDS011;6591;51.446;5.404;2023-04-22T09:25:19;4.68;;;3.80;;
13048;SDS011;6591;51.446;5.404;2023-04-22T09:27:58;4.07;;;3.78;;
13048;SDS011;6591;51.446;5.404;2023-04-22T09:30:30;4.50;;;4.10;;
13048;SDS011;6591;51.446;5.404;2023-04-22T09:33:01;4.00;;;3.70;;
13048;SDS011;6591;51.446;5.404;2023-04-22T09:35:31;3.92;;;3.47;;
13048;SDS011;6591;51.446;5.404;2023-04-22T09:38:04;4.53;;;3.72;;
13048;SDS011;6591;51.446;5.404;2023-04-22T09:40:35;5.15;;;4.32;;
13048;SDS011;6591;51.446;5.404;2023-04-22T09:43:07;4.22;;;3.90;;
13048;SDS011;6591;51.446;5.404;2023-04-22T09:50:43;5.03;;;4.32;;
13048;SDS011;6591;51.446;5.404;2023-04-22T09:53:14;4.30;;;3.90;;
13048;SDS011;6591;51.446;5.404;2023-04-22T09:55:45;4.68;;;4.28;;
13048;SDS011;6591;51.446;5.404;2023-04-22T09:58:15;4.70;;;4.30;;
13048;SDS011;6591;51.446;5.404;2023-04-22T10:03:18;4.40;;;4.00;;
13048;SDS011;6591;51.446;5.404;2023-04-22T10:05:45;4.10;;;3.70;;
13048;SDS011;6591;51.446;5.404;2023-04-22T10:08:14;5.50;;;3.83;;
13048;SDS011;6591;51.446;5.404;2023-04-22T10:10:43;4.15;;;3.75;;
13048;SDS011;6591;51.446;5.404;2023-04-22T10:13:11;4.00;;;3.40;;
13048;SDS011;6591;51.446;5.404;2023-04-22T10:15:39;4.13;;;3.38;;
13048;SDS011;6591;51.446;5.404;2023-04-22T10:18:17;3.83;;;3.53;;
13048;SDS011;6591;51.446;5.404;2023-04-22T10:20:51;4.05;;;3.65;;
13048;SDS011;6591;51.446;5.404;2023-04-22T10:23:23;3.63;;;3.33;;
13048;SDS011;6591;51.446;5.404;2023-04-22T10:25:54;4.45;;;3.38;;
13048;SDS011;6591;51.446;5.404;2023-04-22T10:28:22;3.42;;;2.88;;
13048;SDS011;6591;51.446;5.404;2023-04-22T10:30:53;3.42;;;2.92;;
13048;SDS011;6591;51.446;5.404;2023-04-22T10:43:55;3.50;;;2.88;;
13048;SDS011;6591;51.446;5.404;2023-04-22T10:49:09;4.10;;;3.20;;
13048;SDS011;6591;51.446;5.404;2023-04-22T10:51:46;4.30;;;3.05;;
13048;SDS011;6591;51.446;5.404;2023-04-22T10:57:05;3.15;;;2.85;;
13048;SDS011;6591;51.446;5.404;2023-04-22T10:59:41;3.20;;;3.00;;
13048;SDS011;6591;51.446;5.404;2023-04-22T11:02:20;4.80;;;3.08;;
13048;SDS011;6591;51.446;5.404;2023-04-22T11:04:49;4.80;;;3.50;;
13048;SDS011;6591;51.446;5.404;2023-04-22T11:10:00;3.40;;;3.00;;
13048;SDS011;6591;51.446;5.404;2023-04-22T11:12:41;5.10;;;3.85;;
13048;SDS011;6591;51.446;5.404;2023-04-22T11:17:43;4.32;;;3.92;;
13048;SDS011;6591;51.446;5.404;2023-04-22T11:20:18;4.03;;;3.63;;
13048;SDS011;6591;51.446;5.404;2023-04-22T11:22:47;4.05;;;3.58;;
13048;SDS011;6591;51.446;5.404;2023-04-22T11:25:21;5.10;;;3.80;;
13048;SDS011;6591;51.446;5.404;2023-04-22T11:27:51;5.10;;;4.10;;
13048;SDS011;6591;51.446;5.404;2023-04-22T11:30:20;4.85;;;4.28;;
13048;SDS011;6591;51.446;5.404;2023-04-22T11:32:54;4.50;;;4.10;;
13048;SDS011;6591;51.446;5.404;2023-04-22T11:35:26;4.70;;;4.30;;
13048;SDS011;6591;51.446;5.404;2023-04-22T11:40:33;4.95;;;4.07;;
13048;SDS011;6591;51.446;5.404;2023-04-22T11:43:11;5.15;;;4.65;;
13048;SDS011;6591;51.446;5.404;2023-04-22T11:45:38;5.75;;;4.32;;
13048;SDS011;6591;51.446;5.404;2023-04-22T11:48:06;5.13;;;4.30;;
13048;SDS011;6591;51.446;5.404;2023-04-22T11:50:36;5.15;;;4.13;;
13048;SDS011;6591;51.446;5.404;2023-04-22T11:53:15;4.85;;;4.35;;
13048;SDS011;6591;51.446;5.404;2023-04-22T11:55:49;5.88;;;4.50;;
13048;SDS011;6591;51.446;5.404;2023-04-22T11:58:18;4.88;;;4.38;;
13048;SDS011;6591;51.446;5.404;2023-04-22T12:00:51;6.10;;;5.00;;
13048;SDS011;6591;51.446;5.404;2023-04-22T12:03:21;5.43;;;4.88;;
13048;SDS011;6591;51.446;5.404;2023-04-22T12:05:58;5.00;;;4.50;;
13048;SDS011;6591;51.446;5.404;2023-04-22T12:10:59;5.43;;;4.93;;
13048;SDS011;6591;51.446;5.404;2023-04-22T12:13:53;5.97;;;4.97;;
13048;SDS011;6591;51.446;5.404;2023-04-22T12:16:17;5.47;;;4.90;;
13048;SDS011;6591;51.446;5.404;2023-04-22T12:18:55;6.07;;;5.47;;
13048;SDS011;6591;51.446;5.404;2023-04-22T12:21:22;6.07;;;5.13;;
13048;SDS011;6591;51.446;5.404;2023-04-22T12:23:54;6.13;;;5.40;;
13048;SDS011;6591;51.446;5.404;2023-04-22T12:26:26;5.75;;;5.00;;
13048;SDS011;6591;51.446;5.404;2023-04-22T12:28:54;6.25;;;5.10;;
13048;SDS011;6591;51.446;5.404;2023-04-22T12:31:23;6.60;;;5.47;;
13048;SDS011;6591;51.446;5.404;2023-04-22T12:33:51;6.47;;;5.88;;
13048;SDS011;6591;51.446;5.404;2023-04-22T12:36:19;6.32;;;5.57;;
13048;SDS011;6591;51.446;5.404;2023-04-22T12:38:47;6.28;;;5.55;;
13048;SDS011;6591;51.446;5.404;2023-04-22T12:41:15;6.63;;;5.97;;
13048;SDS011;6591;51.446;5.404;2023-04-22T12:43:42;6.70;;;5.90;;
13048;SDS011;6591;51.446;5.404;2023-04-22T12:46:09;6.80;;;6.10;;
13048;SDS011;6591;51.446;5.404;2023-04-22T12:48:36;6.40;;;5.70;;
13048;SDS011;6591;51.446;5.404;2023-04-22T12:51:04;6.40;;;5.78;;
13048;SDS011;6591;51.446;5.404;2023-04-22T12:53:32;6.32;;;5.57;;
13048;SDS011;6591;51.446;5.404;2023-04-22T12:55:59;6.40;;;5.72;;
13048;SDS011;6591;51.446;5.404;2023-04-22T12:58:27;6.35;;;5.57;;
13048;SDS011;6591;51.446;5.404;2023-04-22T13:00:56;7.32;;;5.65;;
13048;SDS011;6591;51.446;5.404;2023-04-22T13:03:23;5.57;;;5.07;;
13048;SDS011;6591;51.446;5.404;2023-04-22T13:05:51;8.07;;;5.47;;
13048;SDS011;6591;51.446;5.404;2023-04-22T13:08:18;7.30;;;5.65;;
13048;SDS011;6591;51.446;5.404;2023-04-22T13:10:46;6.00;;;5.40;;
13048;SDS011;6591;51.446;5.404;2023-04-22T13:13:14;6.78;;;6.18;;
13048;SDS011;6591;51.446;5.404;2023-04-22T13:15:45;6.45;;;5.80;;
13048;SDS011;6591;51.446;5.404;2023-04-22T13:18:13;6.55;;;5.95;;
13048;SDS011;6591;51.446;5.404;2023-04-22T13:20:42;7.78;;;7.00;;
13048;SDS011;6591;51.446;5.404;2023-04-22T13:23:09;6.95;;;6.35;;
13048;SDS011;6591;51.446;5.404;2023-04-22T13:25:36;7.68;;;6.93;;
13048;SDS011;6591;51.446;5.404;2023-04-22T13:28:03;7.22;;;6.53;;
13048;SDS011;6591;51.446;5.404;2023-04-22T13:30:31;7.13;;;6.43;;
13048;SDS011;6591;51.446;5.404;2023-04-22T13:32:58;7.50;;;6.80;;
13048;SDS011;6591;51.446;5.404;2023-04-22T13:35:25;7.43;;;6.55;;
13048;SDS011;6591;51.446;5.404;2023-04-22T13:37:52;8.13;;;7.10;;
13048;SDS011;6591;51.446;5.404;2023-04-22T13:40:19;6.85;;;6.25;;
13048;SDS011;6591;51.446;5.404;2023-04-22T13:42:47;7.90;;;6.95;;
13048;SDS011;6591;51.446;5.404;2023-04-22T13:45:14;7.88;;;6.95;;
13048;SDS011;6591;51.446;5.404;2023-04-22T13:47:41;7.15;;;6.55;;
13048;SDS011;6591;51.446;5.404;2023-04-22T13:50:09;6.75;;;6.15;;
13048;SDS011;6591;51.446;5.404;2023-04-22T13:52:36;7.13;;;6.43;;
13048;SDS011;6591;51.446;5.404;2023-04-22T13:55:03;7.25;;;6.60;;
13048;SDS011;6591;51.446;5.404;2023-04-22T13:57:32;7.90;;;7.07;;
13048;SDS011;6591;51.446;5.404;2023-04-22T13:59:58;6.90;;;6.30;;
13048;SDS011;6591;51.446;5.404;2023-04-22T14:02:26;6.68;;;5.97;;
13048;SDS011;6591;51.446;5.404;2023-04-22T14:04:53;6.43;;;5.82;;
13048;SDS011;6591;51.446;5.404;2023-04-22T14:07:20;6.38;;;5.78;;
13048;SDS011;6591;51.446;5.404;2023-04-22T14:09:47;6.35;;;5.43;;
13048;SDS011;6591;51.446;5.404;2023-04-22T14:12:14;6.63;;;5.28;;
13048;SDS011;6591;51.446;5.404;2023-04-22T14:14:41;6.88;;;5.32;;
13048;SDS011;6591;51.446;5.404;2023-04-22T14:17:09;5.35;;;4.85;;
13048;SDS011;6591;51.446;5.404;2023-04-22T14:19:36;5.55;;;4.90;;
13048;SDS011;6591;51.446;5.404;2023-04-22T14:22:05;5.20;;;4.70;;
13048;SDS011;6591;51.446;5.404;2023-04-22T14:24:32;4.97;;;4.47;;
13048;SDS011;6591;51.446;5.404;2023-04-22T14:26:59;4.05;;;3.65;;
13048;SDS011;6591;51.446;5.404;2023-04-22T14:29:30;5.07;;;4.57;;
13048;SDS011;6591;51.446;5.404;2023-04-22T14:31:57;5.90;;;5.25;;
13048;SDS011;6591;51.446;5.404;2023-04-22T14:34:24;5.40;;;4.85;;
13048;SDS011;6591;51.446;5.404;2023-04-22T14:36:52;5.18;;;4.50;;
13048;SDS011;6591;51.446;5.404;2023-04-22T14:39:19;4.90;;;4.40;;
13048;SDS011;6591;51.446;5.404;2023-04-22T14:41:47;4.72;;;4.32;;
13048;SDS011;6591;51.446;5.404;2023-04-22T14:44:14;4.97;;;4.40;;
13048;SDS011;6591;51.446;5.404;2023-04-22T14:46:41;4.70;;;4.28;;
13048;SDS011;6591;51.446;5.404;2023-04-22T14:49:08;3.85;;;3.55;;
13048;SDS011;6591;51.446;5.404;2023-04-22T14:51:36;4.20;;;3.80;;
13048;SDS011;6591;51.446;5.404;2023-04-22T14:54:03;4.32;;;3.92;;
13048;SDS011;6591;51.446;5.404;2023-04-22T14:56:30;4.13;;;3.72;;
13048;SDS011;6591;51.446;5.404;2023-04-22T14:58:57;4.25;;;3.42;;
13048;SDS011;6591;51.446;5.404;2023-04-22T15:01:24;3.38;;;3.08;;
13048;SDS011;6591;51.446;5.404;2023-04-22T15:03:51;3.15;;;2.95;;
13048;SDS011;6591;51.446;5.404;2023-04-22T15:06:18;2.90;;;2.60;;
13048;SDS011;6591;51.446;5.404;2023-04-22T15:08:48;3.10;;;2.80;;
13048;SDS011;6591;51.446;5.404;2023-04-22T15:11:19;2.67;;;2.40;;
13048;SDS011;6591;51.446;5.404;2023-04-22T15:13:46;3.03;;;2.40;;
13048;SDS011;6591;51.446;5.404;2023-04-22T15:16:13;2.63;;;2.42;;
13048;SDS011;6591;51.446;5.404;2023-04-22T15:18:41;2.38;;;2.05;;
13048;SDS011;6591;51.446;5.404;2023-04-22T15:21:08;3.15;;;2.13;;
13048;SDS011;6591;51.446;5.404;2023-04-22T15:23:36;2.47;;;2.00;;
13048;SDS011;6591;51.446;5.404;2023-04-22T15:26:03;2.10;;;1.90;;
13048;SDS011;6591;51.446;5.404;2023-04-22T15:28:30;2.38;;;2.00;;
13048;SDS011;6591;51.446;5.404;2023-04-22T15:30:59;2.90;;;2.20;;
13048;SDS011;6591;51.446;5.404;2023-04-22T15:33:27;2.20;;;2.00;;
13048;SDS011;6591;51.446;5.404;2023-04-22T15:35:54;2.22;;;2.03;;
13048;SDS011;6591;51.446;5.404;2023-04-22T15:38:21;2.03;;;1.90;;
13048;SDS011;6591;51.446;5.404;2023-04-22T15:40:49;1.85;;;1.65;;
13048;SDS011;6591;51.446;5.404;2023-04-22T15:43:16;1.75;;;1.65;;
13048;SDS011;6591;51.446;5.404;2023-04-22T15:45:43;1.73;;;1.63;;
13048;SDS011;6591;51.446;5.404;2023-04-22T15:48:10;1.95;;;1.80;;
13048;SDS011;6591;51.446;5.404;2023-04-22T15:50:37;1.52;;;1.42;;